Time;durP1;ratioP1;P1;durP2;ratioP2;P2;SDS_P1;SDS_P2;PMS_P1;PMS_P2;Temp;Humidity;BMP_temperature;BMP_pressure;BME280_temperature;BME280_humidity;BME280_pressure;Samples;Min_cycle;Max_cycle;Signal;HPM_P1;HPM_P2
2022/04/09 00:02:13;;;;;;;2.37;2.00;;;5.20;99.90;;;;;;5028824;28;20216;-73
2022/04/09 00:04:40;;;;;;;2.97;2.00;;;5.10;99.90;;;;;;5028938;28;20201;-74
2022/04/09 00:07:06;;;;;;;2.23;1.80;;;5.20;99.90;;;;;;5033713;28;20204;-73
2022/04/09 00:09:33;;;;;;;1.90;1.80;;;5.10;99.90;;;;;;5044129;28;20221;-74
2022/04/09 00:11:59;;;;;;;2.47;2.00;;;5.10;99.90;;;;;;5028504;28;20718;-74
2022/04/09 00:14:27;;;;;;;3.60;1.90;;;5.10;99.90;;;;;;5028382;28;20208;-73
2022/04/09 00:16:54;;;;;;;1.90;1.80;;;5.00;99.90;;;;;;5028701;28;20270;-74
2022/04/09 00:19:21;;;;;;;2.17;1.90;;;5.00;99.90;;;;;;5017211;28;20213;-74
2022/04/09 00:21:47;;;;;;;4.30;1.90;;;4.90;99.90;;;;;;5038263;28;20251;-75
2022/04/09 00:24:14;;;;;;;2.50;1.97;;;4.90;99.90;;;;;;5033308;28;20228;-75
2022/04/09 00:26:41;;;;;;;2.17;1.97;;;4.90;99.90;;;;;;5028638;28;20217;-75
2022/04/09 00:29:08;;;;;;;4.87;2.00;;;4.80;99.90;;;;;;5028159;28;20259;-75
2022/04/09 00:31:36;;;;;;;2.43;1.80;;;4.90;99.90;;;;;;5028354;28;20212;-74
2022/04/09 00:34:04;;;;;;;2.60;1.90;;;4.90;99.90;;;;;;5028283;28;20205;-75
2022/04/09 00:36:30;;;;;;;2.10;1.90;;;4.80;99.90;;;;;;5043706;28;20227;-74
2022/04/09 00:38:57;;;;;;;3.57;1.93;;;4.90;99.90;;;;;;5028112;28;20201;-74
2022/04/09 00:41:24;;;;;;;3.43;2.00;;;4.80;99.90;;;;;;5045290;28;20211;-74
2022/04/09 00:43:50;;;;;;;2.20;2.00;;;4.80;99.90;;;;;;5035503;28;20212;-74
2022/04/09 00:46:17;;;;;;;1.97;1.80;;;4.90;99.90;;;;;;5019613;28;20660;-73
2022/04/09 00:48:45;;;;;;;2.47;1.57;;;4.90;99.90;;;;;;5008885;28;20558;-74
2022/04/09 00:51:12;;;;;;;3.07;1.90;;;4.80;99.90;;;;;;5048220;28;20267;-74
2022/04/09 00:53:41;;;;;;;2.63;1.80;;;4.90;99.90;;;;;;5048252;28;20721;-74
2022/04/09 00:56:16;;;;;;;2.33;1.60;;;4.80;99.90;;;;;;5028226;28;20209;-74
2022/04/09 00:58:53;;;;;;;2.23;1.77;;;4.70;99.90;;;;;;5028203;28;20197;-73
2022/04/09 01:01:21;;;;;;;2.03;1.83;;;4.70;99.90;;;;;;5027823;28;20199;-74
2022/04/09 01:03:50;;;;;;;2.43;1.90;;;4.60;99.90;;;;;;5036807;28;20223;-74
2022/04/09 01:06:17;;;;;;;3.07;2.53;;;4.70;99.90;;;;;;5036762;28;20257;-74
2022/04/09 01:08:43;;;;;;;1.53;1.43;;;4.70;99.90;;;;;;5030680;28;20642;-74
2022/04/09 01:11:12;;;;;;;2.80;1.60;;;4.70;99.90;;;;;;5031856;28;20240;-73
2022/04/09 01:13:39;;;;;;;1.67;1.50;;;4.70;99.90;;;;;;5031678;28;20213;-73
2022/04/09 01:16:06;;;;;;;4.63;1.37;;;4.60;99.90;;;;;;5031356;28;20212;-73
2022/04/09 01:18:34;;;;;;;2.03;1.53;;;4.70;99.90;;;;;;5031746;28;20200;-71
2022/04/09 01:21:05;;;;;;;2.93;1.57;;;4.70;99.90;;;;;;5031527;28;20581;-71
2022/04/09 01:23:33;;;;;;;2.03;1.50;;;4.70;99.90;;;;;;5031386;28;20771;-71
2022/04/09 01:26:01;;;;;;;1.30;1.20;;;4.70;99.90;;;;;;5031398;28;20204;-71
2022/04/09 01:28:28;;;;;;;3.77;1.47;;;4.70;99.90;;;;;;5031526;28;20204;-71
2022/04/09 01:30:55;;;;;;;3.57;1.70;;;4.70;99.90;;;;;;5031219;28;20599;-70
2022/04/09 01:33:23;;;;;;;2.77;1.70;;;4.70;99.90;;;;;;5031055;28;20207;-71
2022/04/09 01:35:50;;;;;;;4.13;1.30;;;4.70;99.90;;;;;;5033394;28;20286;-71
2022/04/09 01:38:17;;;;;;;5.30;1.53;;;4.60;99.90;;;;;;5051255;28;20208;-71
2022/04/09 01:40:45;;;;;;;4.07;1.50;;;4.60;99.90;;;;;;5033326;28;20216;-71
2022/04/09 01:43:12;;;;;;;1.83;1.53;;;4.60;99.90;;;;;;5031410;28;20211;-70
2022/04/09 01:45:39;;;;;;;3.50;1.80;;;4.60;99.90;;;;;;5030914;28;20208;-71
2022/04/09 01:48:06;;;;;;;4.77;1.70;;;4.60;99.90;;;;;;5031477;28;20204;-70
2022/04/09 01:50:33;;;;;;;2.73;1.40;;;4.60;99.90;;;;;;5031082;28;20279;-70
2022/04/09 01:53:00;;;;;;;2.57;1.50;;;4.60;99.90;;;;;;5031038;28;20200;-70
2022/04/09 01:55:27;;;;;;;2.40;1.73;;;4.60;99.90;;;;;;5031323;28;20219;-70
2022/04/09 01:57:55;;;;;;;1.63;1.50;;;4.50;99.90;;;;;;5031099;28;20368;-70
2022/04/09 02:00:23;;;;;;;3.23;1.87;;;4.50;99.90;;;;;;5031034;28;20251;-70
2022/04/09 02:02:49;;;;;;;2.47;1.50;;;4.50;99.90;;;;;;5031050;28;20258;-75
2022/04/09 02:05:16;;;;;;;2.87;1.50;;;4.50;99.90;;;;;;5031286;28;20236;-76
2022/04/09 02:07:44;;;;;;;3.83;1.90;;;4.40;99.90;;;;;;5031071;28;20259;-76
2022/04/09 02:10:12;;;;;;;2.73;1.90;;;4.40;99.90;;;;;;5030976;28;20232;-76
2022/04/09 02:12:39;;;;;;;3.00;1.70;;;4.50;99.90;;;;;;5030607;28;20667;-76
2022/04/09 02:15:09;;;;;;;2.23;1.50;;;4.50;99.90;;;;;;5030405;28;20201;-74
2022/04/09 02:17:37;;;;;;;4.03;1.90;;;4.40;99.90;;;;;;5037157;28;20204;-74
2022/04/09 02:20:05;;;;;;;4.30;2.10;;;4.40;99.90;;;;;;5049855;28;20255;-73
2022/04/09 02:22:35;;;;;;;2.07;1.70;;;4.50;99.90;;;;;;5044726;28;20587;-74
2022/04/09 02:25:01;;;;;;;1.83;1.47;;;4.40;99.90;;;;;;5030665;28;20279;-74
2022/04/09 02:27:28;;;;;;;2.03;1.67;;;4.40;99.90;;;;;;5030837;28;20208;-73
2022/04/09 02:29:55;;;;;;;4.30;1.80;;;4.40;99.90;;;;;;5029819;28;20837;-73
2022/04/09 02:32:24;;;;;;;1.93;1.80;;;4.40;99.90;;;;;;5030522;28;20216;-73
2022/04/09 02:34:52;;;;;;;2.97;1.67;;;4.40;99.90;;;;;;5030479;28;20208;-73
2022/04/09 02:37:18;;;;;;;3.83;1.80;;;4.30;99.90;;;;;;5024246;28;20213;-78
2022/04/09 02:39:45;;;;;;;2.30;1.80;;;4.20;99.90;;;;;;5030454;28;20206;-78
2022/04/09 02:42:12;;;;;;;1.80;1.43;;;4.30;99.90;;;;;;5030508;28;20235;-77
2022/04/09 02:44:39;;;;;;;2.77;1.70;;;4.20;99.90;;;;;;5030212;28;20200;-78
2022/04/09 02:47:06;;;;;;;4.23;1.83;;;4.20;99.90;;;;;;5030345;28;20224;-78
2022/04/09 02:49:34;;;;;;;2.70;2.10;;;4.10;99.90;;;;;;5030315;28;20276;-78
2022/04/09 02:52:01;;;;;;;2.83;1.57;;;4.10;99.90;;;;;;5030387;28;20274;-78
2022/04/09 02:54:27;;;;;;;3.57;1.90;;;4.10;99.90;;;;;;5030267;28;20218;-78
2022/04/09 02:56:54;;;;;;;4.43;2.00;;;4.10;99.90;;;;;;5030048;28;20274;-78
2022/04/09 02:59:21;;;;;;;2.97;1.80;;;4.10;99.90;;;;;;5029504;28;20822;-78
2022/04/09 03:01:47;;;;;;;5.83;2.00;;;4.10;99.90;;;;;;5029554;28;20216;-78
2022/04/09 03:04:15;;;;;;;4.57;1.90;;;4.10;99.90;;;;;;5030050;28;20294;-78
2022/04/09 03:06:43;;;;;;;2.00;1.80;;;4.00;99.90;;;;;;5029515;28;20244;-73
2022/04/09 03:09:09;;;;;;;3.93;2.10;;;4.10;99.90;;;;;;5029468;28;20207;-73
2022/04/09 03:11:37;;;;;;;3.13;1.77;;;4.00;99.90;;;;;;5029499;28;20232;-73
2022/04/09 03:14:07;;;;;;;3.23;1.70;;;4.10;99.90;;;;;;5029277;28;20208;-73
2022/04/09 03:16:33;;;;;;;3.80;2.10;;;4.00;99.90;;;;;;5029758;28;20259;-73
2022/04/09 03:19:00;;;;;;;4.43;2.10;;;4.00;99.90;;;;;;5039433;28;20208;-73
2022/04/09 03:21:27;;;;;;;6.10;2.30;;;4.00;99.90;;;;;;5029143;28;20746;-73
2022/04/09 03:23:55;;;;;;;4.47;2.10;;;3.90;99.90;;;;;;5029316;28;20229;-73
2022/04/09 03:26:22;;;;;;;5.60;2.20;;;3.90;99.90;;;;;;5029177;28;20251;-73
2022/04/09 03:28:48;;;;;;;4.40;2.07;;;3.90;99.90;;;;;;5034994;28;20215;-73
2022/04/09 03:31:16;;;;;;;3.00;2.13;;;3.80;99.90;;;;;;5047628;28;20230;-73
2022/04/09 03:33:43;;;;;;;2.60;2.10;;;3.80;99.90;;;;;;5028990;28;20664;-73
2022/04/09 03:36:09;;;;;;;2.30;1.77;;;3.70;99.90;;;;;;5028957;28;20200;-73
2022/04/09 03:38:36;;;;;;;3.80;2.27;;;3.70;99.90;;;;;;5029213;28;20212;-73
2022/04/09 03:41:06;;;;;;;3.97;1.90;;;3.70;99.90;;;;;;5029503;28;20213;-73
2022/04/09 03:43:33;;;;;;;4.83;2.53;;;3.70;99.90;;;;;;5029069;28;20196;-73
2022/04/09 03:46:00;;;;;;;2.03;1.83;;;3.60;99.90;;;;;;5028401;28;20384;-74
2022/04/09 03:48:26;;;;;;;3.97;2.27;;;3.60;99.90;;;;;;5029096;28;20208;-74
2022/04/09 03:50:53;;;;;;;4.07;2.43;;;3.60;99.90;;;;;;5028807;28;20232;-74
2022/04/09 03:53:20;;;;;;;2.63;2.10;;;3.50;99.90;;;;;;5023832;28;20655;-74
2022/04/09 03:55:47;;;;;;;3.07;2.17;;;3.50;99.90;;;;;;5029274;28;20295;-73
2022/04/09 03:58:16;;;;;;;2.80;1.90;;;3.50;99.90;;;;;;5028699;28;20218;-74
2022/04/09 04:00:43;;;;;;;2.83;2.10;;;3.50;99.90;;;;;;5028444;28;20266;-74
2022/04/09 04:03:10;;;;;;;3.20;1.80;;;3.50;99.90;;;;;;5028365;28;20695;-74
2022/04/09 04:05:37;;;;;;;3.97;2.63;;;3.50;99.90;;;;;;5028708;28;20209;-74
2022/04/09 04:08:04;;;;;;;4.57;2.53;;;3.40;99.90;;;;;;5029427;28;20296;-74
2022/04/09 04:10:32;;;;;;;8.10;2.73;;;3.40;99.90;;;;;;5028545;28;20229;-75
2022/04/09 04:12:59;;;;;;;6.43;2.60;;;3.40;99.90;;;;;;5028600;28;20267;-74
2022/04/09 04:15:27;;;;;;;3.10;2.43;;;3.40;99.90;;;;;;5026877;28;20740;-76
2022/04/09 04:17:55;;;;;;;3.87;2.20;;;3.40;99.90;;;;;;5035618;28;20208;-76
2022/04/09 04:20:23;;;;;;;2.33;2.07;;;3.40;99.90;;;;;;5048330;28;20231;-75
2022/04/09 04:22:51;;;;;;;3.53;2.20;;;3.40;99.90;;;;;;5036919;28;20630;-74
2022/04/09 04:25:18;;;;;;;5.33;2.40;;;3.40;99.90;;;;;;5028329;28;20205;-73
2022/04/09 04:27:49;;;;;;;2.90;1.73;;;3.40;99.90;;;;;;5025023;28;20264;-74
2022/04/09 04:30:17;;;;;;;2.40;2.20;;;3.30;99.90;;;;;;5017849;28;20232;-73
2022/04/09 04:32:45;;;;;;;3.87;2.50;;;3.30;99.90;;;;;;5027848;28;20204;-73
2022/04/09 04:35:12;;;;;;;4.40;2.33;;;3.30;99.90;;;;;;5028605;28;20208;-74
2022/04/09 04:37:39;;;;;;;3.83;2.07;;;3.30;99.90;;;;;;5027967;28;20208;-74
2022/04/09 04:40:08;;;;;;;3.27;2.00;;;3.30;99.90;;;;;;5028033;28;20271;-74
2022/04/09 04:42:34;;;;;;;4.17;2.43;;;3.30;99.90;;;;;;5030169;28;20212;-74
2022/04/09 04:45:01;;;;;;;7.17;2.33;;;3.30;99.90;;;;;;5034596;28;20278;-74
2022/04/09 04:47:29;;;;;;;3.53;2.00;;;3.30;99.90;;;;;;5034955;28;20227;-73
2022/04/09 04:49:59;;;;;;;3.43;2.40;;;3.30;99.90;;;;;;5034544;28;20793;-73
2022/04/09 04:52:26;;;;;;;5.27;2.70;;;3.20;99.90;;;;;;5030326;28;20229;-72
2022/04/09 04:54:52;;;;;;;8.37;2.57;;;3.20;99.90;;;;;;5034648;28;20248;-73
2022/04/09 04:57:19;;;;;;;6.20;2.43;;;3.30;99.90;;;;;;5034838;28;20212;-76
2022/04/09 04:59:46;;;;;;;3.97;2.17;;;3.30;99.90;;;;;;5034310;28;20213;-74
2022/04/09 05:02:12;;;;;;;6.13;2.43;;;3.20;99.90;;;;;;5034616;28;20217;-74
2022/04/09 05:04:40;;;;;;;5.60;2.20;;;3.20;99.90;;;;;;5034382;28;20216;-74
2022/04/09 05:07:08;;;;;;;2.93;2.00;;;3.30;99.90;;;;;;5032803;28;20270;-73
2022/04/09 05:09:35;;;;;;;5.63;2.60;;;3.20;99.90;;;;;;5032056;28;20208;-73
2022/04/09 05:12:02;;;;;;;3.57;2.10;;;3.30;99.90;;;;;;5031729;28;20225;-73
2022/04/09 05:14:29;;;;;;;3.03;2.10;;;3.30;99.90;;;;;;5031637;28;20266;-73
2022/04/09 05:16:57;;;;;;;8.37;2.60;;;3.30;99.90;;;;;;5033055;28;20220;-73
2022/04/09 05:19:23;;;;;;;4.77;2.00;;;3.30;99.90;;;;;;5038275;28;20627;-73
2022/04/09 05:21:50;;;;;;;3.60;2.20;;;3.30;99.90;;;;;;5039967;28;20297;-73
2022/04/09 05:24:18;;;;;;;3.20;2.20;;;3.40;99.90;;;;;;5032198;28;20233;-74
2022/04/09 05:26:45;;;;;;;5.17;2.20;;;3.30;99.90;;;;;;5031836;28;20756;-73
2022/04/09 05:29:11;;;;;;;4.27;2.90;;;3.40;99.90;;;;;;5032065;28;20208;-73
2022/04/09 05:31:38;;;;;;;5.60;3.00;;;3.40;99.90;;;;;;5032081;28;20228;-73
2022/04/09 05:34:06;;;;;;;4.23;2.23;;;3.50;99.90;;;;;;5032435;28;20204;-73
2022/04/09 05:36:33;;;;;;;5.53;2.27;;;3.50;99.90;;;;;;5032730;28;20223;-74
2022/04/09 05:38:59;;;;;;;3.63;2.40;;;3.40;99.90;;;;;;5032499;28;20208;-73
2022/04/09 05:41:27;;;;;;;4.47;2.13;;;3.40;99.90;;;;;;5031942;28;20618;-74
2022/04/09 05:43:54;;;;;;;7.30;2.47;;;3.40;99.90;;;;;;5031286;28;20205;-74
2022/04/09 05:46:23;;;;;;;3.97;2.03;;;3.50;99.90;;;;;;5031865;28;20671;-73
2022/04/09 05:48:49;;;;;;;4.13;2.13;;;3.50;99.90;;;;;;5031896;28;20903;-71
2022/04/09 05:51:16;;;;;;;3.60;2.20;;;3.50;99.90;;;;;;5031746;28;20228;-73
2022/04/09 05:53:43;;;;;;;2.80;2.00;;;3.60;99.90;;;;;;5030485;28;20207;-74
2022/04/09 05:56:09;;;;;;;3.27;2.20;;;3.60;99.90;;;;;;5014188;28;20782;-72
2022/04/09 05:58:39;;;;;;;4.97;2.60;;;3.60;99.90;;;;;;5025456;28;20255;-73
2022/04/09 06:01:06;;;;;;;2.17;1.83;;;3.60;99.90;;;;;;5028779;28;20571;-73
2022/04/09 06:03:33;;;;;;;5.57;2.53;;;3.70;99.90;;;;;;5029001;28;20666;-73
2022/04/09 06:05:59;;;;;;;3.93;2.37;;;3.60;99.90;;;;;;5029111;28;20213;-72
2022/04/09 06:08:26;;;;;;;3.90;2.17;;;3.70;99.90;;;;;;5028686;28;20205;-73
2022/04/09 06:10:53;;;;;;;3.63;2.30;;;3.80;99.90;;;;;;5028689;28;20213;-75
2022/04/09 06:13:19;;;;;;;3.40;2.80;;;3.90;99.90;;;;;;5028635;28;20241;-73
2022/04/09 06:15:47;;;;;;;3.23;2.20;;;3.90;99.90;;;;;;5028714;28;20213;-72
2022/04/09 06:18:14;;;;;;;5.00;2.50;;;3.90;99.90;;;;;;5029404;28;20201;-72
2022/04/09 06:20:41;;;;;;;3.90;2.17;;;3.90;99.90;;;;;;5028824;28;20320;-72
2022/04/09 06:23:08;;;;;;;4.13;2.63;;;4.00;99.90;;;;;;5028338;28;20484;-73
2022/04/09 06:25:35;;;;;;;4.83;2.33;;;4.20;99.90;;;;;;5029522;28;20216;-73
2022/04/09 06:28:02;;;;;;;5.03;2.70;;;4.20;99.90;;;;;;5030190;28;20209;-73
2022/04/09 06:30:29;;;;;;;3.80;3.00;;;4.10;99.90;;;;;;5029389;28;20809;-73
2022/04/09 06:32:57;;;;;;;4.83;2.43;;;4.20;99.90;;;;;;5029433;28;20228;-73
2022/04/09 06:35:24;;;;;;;4.00;2.40;;;4.20;99.90;;;;;;5030289;28;20262;-75
2022/04/09 06:37:51;;;;;;;6.33;2.63;;;4.20;99.90;;;;;;5029846;28;20212;-73
2022/04/09 06:40:18;;;;;;;2.53;2.07;;;4.30;99.90;;;;;;5030212;28;20239;-73
2022/04/09 06:42:44;;;;;;;5.10;2.30;;;4.40;99.90;;;;;;5030229;28;20213;-73
2022/04/09 06:45:13;;;;;;;3.23;2.60;;;4.40;99.90;;;;;;5029970;28;20216;-73
2022/04/09 06:47:40;;;;;;;4.47;2.40;;;4.50;99.90;;;;;;5029901;28;20209;-72
2022/04/09 06:50:10;;;;;;;3.53;2.23;;;4.60;99.90;;;;;;5030012;28;20200;-72
2022/04/09 06:52:37;;;;;;;2.30;2.07;;;4.60;99.90;;;;;;5023646;28;20225;-72
2022/04/09 06:55:04;;;;;;;5.90;2.47;;;4.70;99.90;;;;;;5010212;28;20256;-72
2022/04/09 06:57:32;;;;;;;4.23;2.37;;;4.70;99.90;;;;;;5010228;28;20291;-72
2022/04/09 07:00:00;;;;;;;5.03;2.40;;;4.80;99.90;;;;;;5009801;28;20213;-72
2022/04/09 07:02:27;;;;;;;2.80;2.03;;;4.80;99.90;;;;;;5010065;28;20206;-72
2022/04/09 07:04:54;;;;;;;3.50;2.13;;;4.90;99.90;;;;;;5024610;28;20207;-72
2022/04/09 07:07:24;;;;;;;4.13;2.27;;;4.90;99.90;;;;;;5029638;28;20212;-72
2022/04/09 07:09:53;;;;;;;3.70;2.00;;;4.90;99.90;;;;;;5029568;28;20212;-72
2022/04/09 07:12:22;;;;;;;2.67;2.40;;;5.00;99.90;;;;;;5029373;28;20232;-72
2022/04/09 07:14:49;;;;;;;5.77;2.40;;;5.10;99.90;;;;;;5032419;28;20209;-72
2022/04/09 07:17:20;;;;;;;5.47;2.70;;;5.10;99.90;;;;;;5032749;28;20254;-72
2022/04/09 07:19:46;;;;;;;4.83;2.00;;;5.20;99.90;;;;;;5049328;28;20192;-72
2022/04/09 07:22:13;;;;;;;4.83;2.80;;;5.20;99.90;;;;;;5049480;28;20204;-72
2022/04/09 07:24:41;;;;;;;3.17;2.30;;;5.20;99.90;;;;;;5030807;28;20279;-72
2022/04/09 07:27:08;;;;;;;2.87;2.53;;;5.20;99.90;;;;;;5029320;28;20554;-72
2022/04/09 07:29:34;;;;;;;3.53;2.00;;;5.20;99.90;;;;;;5028577;28;20621;-72
2022/04/09 07:32:01;;;;;;;5.90;2.30;;;5.20;99.90;;;;;;5029170;28;20276;-72
2022/04/09 07:34:28;;;;;;;3.60;2.07;;;5.30;99.90;;;;;;5029287;28;20247;-72
2022/04/09 07:36:54;;;;;;;4.93;2.83;;;5.30;99.90;;;;;;5028814;28;20208;-72
2022/04/09 07:39:21;;;;;;;7.20;2.70;;;5.40;99.90;;;;;;5029084;28;20209;-72
2022/04/09 07:41:49;;;;;;;5.53;2.80;;;5.40;99.90;;;;;;5028871;28;20217;-72
2022/04/09 07:44:16;;;;;;;2.27;2.10;;;5.50;99.90;;;;;;5028901;28;20311;-72
2022/04/09 07:46:43;;;;;;;8.37;2.63;;;5.50;99.90;;;;;;5028782;28;20262;-72
2022/04/09 07:49:09;;;;;;;5.73;2.53;;;5.50;99.90;;;;;;5028725;28;20259;-72
2022/04/09 07:51:36;;;;;;;5.13;2.47;;;5.50;99.90;;;;;;5028417;28;20640;-72
2022/04/09 07:54:03;;;;;;;7.00;2.50;;;5.60;99.90;;;;;;5028486;28;20205;-72
2022/04/09 07:56:29;;;;;;;4.47;2.27;;;5.60;99.90;;;;;;5028870;28;20213;-72
2022/04/09 07:58:57;;;;;;;6.90;2.10;;;5.60;99.90;;;;;;5028705;28;20259;-73
2022/04/09 08:01:24;;;;;;;5.40;2.40;;;5.70;99.90;;;;;;5028671;28;20258;-72
2022/04/09 08:03:51;;;;;;;3.77;2.30;;;5.70;99.90;;;;;;5028588;28;20283;-72
2022/04/09 08:06:17;;;;;;;3.33;2.27;;;5.80;99.90;;;;;;5028657;28;20213;-72
2022/04/09 08:08:44;;;;;;;3.80;2.10;;;5.90;99.90;;;;;;5028337;28;20208;-72
2022/04/09 08:11:11;;;;;;;4.93;2.00;;;6.10;99.90;;;;;;5043912;28;20241;-72
2022/04/09 08:13:39;;;;;;;5.03;2.13;;;6.20;99.90;;;;;;5048471;28;20235;-72
2022/04/09 08:16:10;;;;;;;3.40;2.00;;;6.20;99.90;;;;;;5041477;28;20219;-72
2022/04/09 08:18:38;;;;;;;5.27;2.10;;;6.20;99.90;;;;;;5042360;28;20213;-72
2022/04/09 08:21:07;;;;;;;2.63;2.30;;;6.30;99.90;;;;;;5047940;28;20733;-72
2022/04/09 08:23:34;;;;;;;5.80;2.30;;;6.20;99.90;;;;;;5038010;28;20275;-72
2022/04/09 08:26:02;;;;;;;4.50;2.00;;;6.30;99.90;;;;;;5027113;28;20292;-74
2022/04/09 08:28:31;;;;;;;3.50;2.00;;;6.40;99.90;;;;;;5028473;28;20619;-73
2022/04/09 08:30:59;;;;;;;6.37;1.90;;;6.30;99.90;;;;;;5028035;28;20205;-73
2022/04/09 08:33:27;;;;;;;5.30;2.10;;;6.30;99.90;;;;;;5027783;28;20265;-72
2022/04/09 08:35:53;;;;;;;5.53;2.07;;;6.50;99.90;;;;;;5028041;28;20212;-73
2022/04/09 08:38:20;;;;;;;3.73;1.93;;;6.60;99.90;;;;;;5028354;28;20983;-72
2022/04/09 08:40:47;;;;;;;3.37;1.50;;;6.70;99.90;;;;;;5028311;28;20213;-73
2022/04/09 08:43:14;;;;;;;4.07;2.00;;;6.90;99.90;;;;;;5028069;28;20625;-73
2022/04/09 08:45:41;;;;;;;4.40;1.90;;;6.80;99.90;;;;;;5027752;28;20212;-73
2022/04/09 08:48:09;;;;;;;4.90;1.90;;;6.70;99.90;;;;;;5028077;28;20219;-72
2022/04/09 08:50:37;;;;;;;3.73;1.80;;;6.60;99.90;;;;;;5028064;28;20579;-72
2022/04/09 08:53:07;;;;;;;4.40;2.20;;;6.60;99.90;;;;;;5023217;28;20229;-73
2022/04/09 08:55:35;;;;;;;5.40;2.10;;;6.70;99.90;;;;;;5028321;28;20197;-72
2022/04/09 08:58:01;;;;;;;3.30;1.83;;;6.80;99.90;;;;;;5008419;28;20209;-73
2022/04/09 09:00:28;;;;;;;3.27;1.87;;;6.80;99.90;;;;;;5025930;28;20200;-73
2022/04/09 09:02:56;;;;;;;3.60;1.83;;;7.00;99.90;;;;;;5027891;28;20220;-73
2022/04/09 09:05:31;;;;;;;4.00;2.00;;;7.10;99.90;;;;;;5027984;28;20217;-72
2022/04/09 09:07:59;;;;;;;3.63;2.00;;;7.40;99.90;;;;;;5039171;28;20231;-73
2022/04/09 09:10:26;;;;;;;5.33;1.77;;;7.40;99.90;;;;;;5028100;28;20263;-72
2022/04/09 09:13:01;;;;;;;5.33;1.70;;;7.30;99.90;;;;;;5027454;28;20290;-72
2022/04/09 09:15:28;;;;;;;3.87;1.77;;;7.30;99.90;;;;;;5025823;28;20990;-72
2022/04/09 09:17:59;;;;;;;3.53;1.70;;;7.20;99.90;;;;;;5026189;28;20231;-73
2022/04/09 09:20:26;;;;;;;3.13;1.47;;;7.20;99.90;;;;;;5043308;28;21003;-72
2022/04/09 09:22:54;;;;;;;2.50;1.30;;;7.30;99.90;;;;;;5027546;28;20233;-73
2022/04/09 09:25:22;;;;;;;2.53;2.03;;;7.40;99.90;;;;;;5027855;28;20204;-72
2022/04/09 09:27:58;;;;;;;4.53;3.33;;;7.70;99.90;;;;;;5027033;28;20879;-73
2022/04/09 09:30:25;;;;;;;5.37;2.50;;;7.90;99.90;;;;;;5031587;28;20287;-72
2022/04/09 09:33:07;;;;;;;2.97;1.60;;;7.90;99.90;;;;;;5031358;28;20232;-72
2022/04/09 09:35:54;;;;;;;2.63;1.60;;;7.90;99.90;;;;;;5031333;28;20652;-72
2022/04/09 09:38:27;;;;;;;3.13;1.77;;;8.00;99.90;;;;;;5031385;28;20288;-72
2022/04/09 09:40:56;;;;;;;5.00;1.83;;;8.20;99.90;;;;;;5031357;28;20212;-72
2022/04/09 09:43:25;;;;;;;3.73;1.70;;;8.30;99.90;;;;;;5031398;28;20307;-72
2022/04/09 09:45:54;;;;;;;2.17;1.40;;;8.10;99.90;;;;;;5031028;28;20227;-72
2022/04/09 09:48:22;;;;;;;2.23;1.37;;;8.00;99.90;;;;;;5031504;28;21053;-72
2022/04/09 09:50:49;;;;;;;3.17;1.87;;;7.90;99.90;;;;;;5030993;28;20209;-73
2022/04/09 09:53:16;;;;;;;1.93;1.43;;;7.90;99.90;;;;;;5026392;28;20610;-72
2022/04/09 09:55:44;;;;;;;3.43;1.40;;;8.00;99.90;;;;;;5030587;28;20209;-72
2022/04/09 09:58:15;;;;;;;3.83;1.43;;;8.20;99.90;;;;;;5030972;28;20223;-72
2022/04/09 10:00:43;;;;;;;2.73;1.30;;;8.40;99.90;;;;;;5030497;28;20205;-73
2022/04/09 10:03:13;;;;;;;2.70;1.37;;;8.60;99.90;;;;;;5030542;28;20213;-72
2022/04/09 10:05:40;;;;;;;3.80;1.20;;;8.70;99.90;;;;;;5030486;28;20218;-72
2022/04/09 10:08:07;;;;;;;2.10;1.40;;;8.80;99.90;;;;;;5030873;28;20201;-74
2022/04/09 10:10:36;;;;;;;2.40;1.50;;;8.80;99.90;;;;;;5030380;28;20201;-72
2022/04/09 10:13:04;;;;;;;2.00;1.20;;;8.90;99.90;;;;;;5030701;28;20274;-72
2022/04/09 10:15:33;;;;;;;3.63;1.30;;;8.80;99.90;;;;;;5030340;28;20216;-72
2022/04/09 10:18:01;;;;;;;3.70;1.77;;;8.60;99.90;;;;;;5040014;28;20659;-72
2022/04/09 10:20:30;;;;;;;3.27;1.63;;;8.30;99.90;;;;;;5050130;28;20718;-72
2022/04/09 10:22:58;;;;;;;3.77;1.40;;;8.40;99.90;;;;;;5046160;28;20323;-72
2022/04/09 10:25:27;;;;;;;1.90;1.43;;;8.30;99.90;;;;;;5030351;28;20753;-73
2022/04/09 10:28:01;;;;;;;4.87;1.40;;;8.30;99.90;;;;;;5030469;28;20211;-73
2022/04/09 10:30:29;;;;;;;2.83;1.30;;;8.40;99.90;;;;;;5029583;28;20195;-72
2022/04/09 10:32:58;;;;;;;2.53;1.60;;;8.40;99.90;;;;;;5030452;28;20268;-72
2022/04/09 10:35:27;;;;;;;2.00;1.00;;;8.60;99.90;;;;;;5030612;28;20284;-72
2022/04/09 10:38:20;;;;;;;3.50;1.13;;;8.80;99.90;;;;;;5012480;28;20213;-72
2022/04/09 10:41:28;;;;;;;4.63;1.57;;;8.80;99.90;;;;;;5009727;28;20214;-72
2022/04/09 10:43:59;;;;;;;3.63;1.30;;;8.70;99.90;;;;;;5009966;28;20252;-72
2022/04/09 10:46:35;;;;;;;2.80;1.40;;;8.50;99.90;;;;;;5019053;28;20219;-72
2022/04/09 10:49:28;;;;;;;4.73;1.30;;;8.40;99.90;;;;;;5029960;28;20204;-72
2022/04/09 10:52:19;;;;;;;1.17;0.90;;;8.50;99.90;;;;;;5029612;28;20193;-72
2022/04/09 10:55:20;;;;;;;2.33;1.50;;;8.50;99.90;;;;;;5029900;28;20216;-72
2022/04/09 10:57:49;;;;;;;3.50;1.07;;;8.50;99.90;;;;;;5007712;28;20209;-72
2022/04/09 11:00:33;;;;;;;3.90;1.67;;;8.80;99.90;;;;;;5044853;28;20211;-73
2022/04/09 11:03:33;;;;;;;3.47;1.17;;;9.00;99.90;;;;;;5033725;28;20204;-72
2022/04/09 11:06:34;;;;;;;2.33;1.50;;;9.30;99.90;;;;;;5028107;28;20204;-72
2022/04/09 11:09:04;;;;;;;2.90;1.30;;;9.50;99.90;;;;;;5029171;28;20240;-71
2022/04/09 11:11:32;;;;;;;2.37;0.90;;;9.50;99.90;;;;;;5036118;28;20758;-73
2022/04/09 11:13:58;;;;;;;4.80;1.57;;;9.40;99.90;;;;;;5029163;28;20240;-73
2022/04/09 11:16:32;;;;;;;1.57;1.10;;;9.40;99.90;;;;;;5029274;28;20205;-73
2022/04/09 11:19:01;;;;;;;4.27;1.57;;;9.50;99.90;;;;;;5039129;28;20201;-73
2022/04/09 11:21:28;;;;;;;1.37;0.90;;;9.40;99.90;;;;;;5028836;28;20278;-73
2022/04/09 11:24:06;;;;;;;1.63;0.90;;;9.30;99.90;;;;;;5029073;28;20267;-73
2022/04/09 11:26:33;;;;;;;5.27;1.30;;;9.30;99.90;;;;;;5029177;28;20243;-73
2022/04/09 11:29:09;;;;;;;2.33;1.00;;;9.30;99.90;;;;;;5028878;28;20265;-73
2022/04/09 11:31:45;;;;;;;3.70;1.30;;;9.50;99.90;;;;;;5028998;28;20200;-73
2022/04/09 11:34:12;;;;;;;1.03;0.90;;;9.30;99.90;;;;;;5029099;28;20358;-73
2022/04/09 11:36:39;;;;;;;1.20;0.80;;;9.10;99.90;;;;;;5025609;28;20209;-73
2022/04/09 11:39:07;;;;;;;2.77;1.53;;;9.20;99.90;;;;;;5027114;28;20621;-72
2022/04/09 11:41:33;;;;;;;2.27;1.00;;;9.60;99.90;;;;;;5028535;28;20604;-73
2022/04/09 11:44:00;;;;;;;3.07;1.20;;;9.70;99.90;;;;;;5027424;28;20217;-73
2022/04/09 11:46:32;;;;;;;1.93;0.93;;;9.80;99.90;;;;;;5026888;28;20213;-74
2022/04/09 11:49:00;;;;;;;2.60;1.10;;;9.90;99.90;;;;;;5028532;28;20365;-74
2022/04/09 11:51:26;;;;;;;1.67;1.07;;;9.90;99.90;;;;;;5027075;28;20620;-73
2022/04/09 11:53:53;;;;;;;2.00;0.90;;;10.00;99.90;;;;;;5022738;28;20264;-73
2022/04/09 11:56:21;;;;;;;2.13;1.13;;;10.00;99.90;;;;;;5044539;28;20605;-71
2022/04/09 11:58:49;;;;;;;2.03;0.90;;;10.10;99.90;;;;;;5034264;28;20200;-72
2022/04/09 12:01:18;;;;;;;2.43;0.90;;;10.10;99.90;;;;;;5028020;28;20205;-71
2022/04/09 12:03:52;;;;;;;1.60;1.13;;;10.00;99.90;;;;;;5028173;28;20367;-71
2022/04/09 12:06:19;;;;;;;1.17;1.00;;;10.10;99.90;;;;;;5024370;28;20207;-76
2022/04/09 12:08:45;;;;;;;3.57;0.93;;;10.40;99.90;;;;;;5028229;28;20259;-75
2022/04/09 12:11:13;;;;;;;2.03;0.93;;;10.60;99.90;;;;;;5027874;28;20212;-75
2022/04/09 12:13:42;;;;;;;3.33;1.20;;;10.70;99.90;;;;;;5027049;28;20677;-73
2022/04/09 12:16:17;;;;;;;2.50;1.40;;;10.50;99.90;;;;;;5025660;28;20655;-72
2022/04/09 12:18:45;;;;;;;1.47;0.90;;;10.70;99.90;;;;;;5023625;28;20208;-72
2022/04/09 12:21:19;;;;;;;2.40;1.17;;;10.50;99.90;;;;;;5027549;28;20244;-76
2022/04/09 12:23:46;;;;;;;3.87;1.30;;;10.40;99.90;;;;;;5021308;28;20311;-76
2022/04/09 12:26:22;;;;;;;1.63;1.00;;;10.10;99.90;;;;;;5027807;28;20204;-76
2022/04/09 12:29:06;;;;;;;2.03;1.10;;;9.80;99.90;;;;;;5026707;28;20200;-72
2022/04/09 12:31:33;;;;;;;1.13;0.57;;;10.30;99.90;;;;;;5016158;28;20205;-73
2022/04/09 12:34:00;;;;;;;2.57;0.70;;;10.40;99.90;;;;;;5027203;28;20586;-73
2022/04/09 12:36:27;;;;;;;1.60;0.73;;;10.20;99.90;;;;;;5027860;28;20201;-73
2022/04/09 12:38:54;;;;;;;2.20;0.70;;;10.20;99.90;;;;;;5027645;28;20204;-73
2022/04/09 12:41:21;;;;;;;1.40;0.50;;;10.20;99.90;;;;;;5027644;28;20216;-73
2022/04/09 12:43:47;;;;;;;2.37;0.90;;;9.90;99.90;;;;;;5027349;28;20556;-73
2022/04/09 12:46:18;;;;;;;0.80;0.70;;;9.60;99.90;;;;;;5026959;28;20201;-73
2022/04/09 12:48:46;;;;;;;3.53;1.23;;;9.30;99.90;;;;;;5013466;28;20696;-73
2022/04/09 12:51:15;;;;;;;1.70;0.67;;;9.00;99.90;;;;;;5016979;28;20220;-73
2022/04/09 12:53:43;;;;;;;1.23;0.33;;;8.30;99.90;;;;;;5012836;28;20272;-73
2022/04/09 12:56:11;;;;;;;0.50;0.40;;;7.70;99.90;;;;;;5026503;28;20251;-74
2022/04/09 12:58:40;;;;;;;1.00;0.30;;;7.10;99.90;;;;;;5026349;28;20235;-73
2022/04/09 13:01:08;;;;;;;0.67;0.33;;;7.00;99.90;;;;;;5026619;28;20201;-73
2022/04/09 13:03:36;;;;;;;0.20;0.20;;;7.20;99.90;;;;;;5027666;28;20467;-70